Terminal Aerodrome Forecast
Issued by NWS Memphis, TN

Home | Current Version | Previous Version | Text Only | Print | Product List | Glossary On
Versions: 1 2 3 4 5 6 7 8 9 10 11 12 13 14 15 16
000
FTUS44 KMEG 282339
TAFMKL
TAF
KMKL 282339Z 0100/0124 VRB03KT P6SM FEW060 BKN150
     FM010900 VRB03KT P6SM VCSH SCT025 OVC040
      TEMPO 0111/0115 OVC025
     FM011500 17005KT 5SM -RA BR OVC012
     FM012100 VRB03KT 4SM -RA BR OVC008=

USA.gov is the U.S. government's official web portal to all federal, state and local government web resources and services.